NCAR-RAP Real-Time Weather Data

Output produced by METARs form (26 May 2022  08:08 UTC)
found at http://weather.rap.ucar.edu/surface/
 
KRDU 260751Z 04003KT 10SM OVC006 17/16 A3024 RMK AO2 DZE49 SLP236 P0000 T01670161
KRDU 260651Z 07004KT 10SM -DZ BKN008 OVC011 17/16 A3023 RMK AO2 DZB08E15B31 SLP235 P0000 T01720156
KRDU 260608Z 07005KT 10SM -DZ BKN007 OVC012 17/16 A3023 RMK AO2 DZB08 P0000 T01720156
KRDU 260551Z 09007KT 10SM FEW008 BKN012 17/16 A3024 RMK AO2 DZB00E45 SLP238 P0000 60000 T01720156 10189 20172 58009
KRDU 260451Z 08006KT 10SM SCT009 BKN012 BKN250 18/16 A3025 RMK AO2 DZE15 SLP241 P0000 T01780161 402000156
KRDU 260351Z 07007KT 10SM -DZ FEW008 BKN011 OVC017 18/16 A3027 RMK AO2 DZE20B32 SLP246 P0000 T01780161
KRDU 260323Z 09007KT 10SM SCT008 BKN013 OVC020 18/17 A3027 RMK AO2 DZE20 P0000 T01830167
KRDU 260251Z 06005KT 8SM -DZ SCT008 SCT014 OVC018 18/17 A3027 RMK AO2 DZB23 SLP248 P0000 60000 T01830167 53002
KRDU 260213Z 04005KT 10SM SCT008 BKN012 OVC020 18/17 A3028 RMK AO2 SCT V BKN T01830167
KRDU 260151Z 06008KT 10SM BKN012 OVC020 18/17 A3026 RMK AO2 DZB21E28 SLP244 P0000 T01830167
KRDU 260130Z 04006KT 10SM BKN012 OVC020 18/17 A3027 RMK AO2 DZB21E28 P0000 T01830167
KRDU 260051Z 04005KT 10SM SCT013 OVC020 18/16 A3027 RMK AO2 SLP248 T01830161
KRDU 260018Z 04005KT 10SM SCT013 OVC020 19/16 A3027 RMK AO2 T01890161
KRDU 252351Z 04005KT 10SM BKN013 OVC030 19/16 A3026 RMK AO2 SLP245 T01890161 10200 20189 53001
KRDU 252251Z 03008KT 10SM BKN013 OVC030 19/16 A3025 RMK AO2 SLP241 T01890156
KRDU 252151Z 05009KT 10SM BKN013 OVC030 19/16 A3025 RMK AO2 SLP240 T01940156
KRDU 252051Z 05009KT 10SM BKN010 BKN018 OVC030 19/16 A3026 RMK AO2 SLP244 T01940156 56007
KRDU 251951Z 05009KT 10SM BKN013 OVC018 19/16 A3026 RMK AO2 SLP245 T01890156
KRDU 251851Z VRB05KT 10SM BKN013 OVC018 19/16 A3027 RMK AO2 SLP248 T01890156
KRDU 251751Z 02006KT 10SM BKN013 OVC018 19/15 A3028 RMK AO2 SLP251 T01890150 10194 20156 58002
KRDU 251651Z 03005KT 10SM BKN013 OVC016 18/14 A3029 RMK AO2 SLP254 T01830144
KRDU 251551Z 03005KT 10SM BKN014 OVC017 19/14 A3029 RMK AO2 SLP256 T01890144 PNO
KRDU 251451Z 01007KT 10SM BKN011 OVC014 18/14 A3029 RMK AO2 SLP253 T01780144 50008 PNO
KRDU 251351Z VRB05KT 10SM OVC010 17/14 A3029 RMK AO2 SLP256 T01670139 PNO
KRDU 251332Z 04005KT 10SM OVC010 17/14 A3029 RMK AO2 CIG 009V011 T01670139 PNO
KRDU 251251Z 05007KT 10SM BKN009 OVC013 16/14 A3028 RMK AO2 SLP252 T01610139 PNO
KRDU 251151Z 05010G16KT 10SM BKN008 OVC015 16/14 A3026 RMK AO2 DZE32 SLP245 T01610139 10161 20156 51017 PNO
KRDU 251133Z 03008KT 10SM BKN007 OVC013 16/14 A3026 RMK AO2 DZE32 T01560139 PNO
KRDU 251051Z 04007KT 2SM -DZ BR BKN006 OVC012 16/15 A3025 RMK AO2 SLP242 T01560150 PNO
KRDU 251000Z 04005KT 2 1/2SM -DZ BR BKN006 OVC012 16/15 A3023 RMK AO2 T01560150 PNO
KRDU 250951Z 04005KT 3SM -DZ BR BKN008 OVC017 16/15 A3023 RMK AO2 SLP234 T01560150 PNO
KRDU 250851Z 04010KT 10SM -DZ BKN008 OVC017 16/14 A3021 RMK AO2 SLP228 T01560144 53001 PNO
KRDU 250751Z 04008KT 10SM -DZ BKN007 BKN013 OVC022 16/14 A3021 RMK AO2 SLP228 T01560144 PNO
KRDU 250728Z 04006KT 7SM -DZ BKN006 BKN012 OVC022 16/15 A3022 RMK AO2 T01610150 PNO
KRDU 250651Z 04006KT 10SM -DZ FEW008 BKN012 OVC022 16/14 A3021 RMK AO2 DZB45 SLP227 T01610144 PNO
KRDU 250551Z 03007KT 10SM FEW006 BKN012 BKN020 BKN250 16/15 A3021 RMK AO2 DZE03 SLP227 T01610150 10178 20161 50001 PNO
KRDU 250531Z 04009KT 10SM FEW006 SCT011 BKN022 BKN250 16/14 A3021 RMK AO2 DZE03 PRESFR T01610144 PNO
KRDU 250504Z 03008KT 10SM FEW006 BKN011 OVC023 16/15 A3024 RMK AO2 DZE03 T01610150 PNO
KRDU 250451Z 04009KT 10SM -DZ OVC009 16/15 A3024 RMK AO2 SLP235 T01610150 402670161 PNO
KRDU 250351Z 03007KT 10SM -DZ OVC007 17/15 A3023 RMK AO2 DZB19 SLP232 T01670150 PNO
KRDU 250251Z 03011KT 3SM BR BKN007 OVC110 17/16 A3021 RMK AO2 SLP226 T01720161 53014 PNO
KRDU 250151Z VRB04KT 6SM BR BKN008 OVC012 18/16 A3018 RMK AO2 SLP218 T01780161 PNO
KRDU 250051Z 36005KT 10SM BKN008 OVC012 18/16 A3018 RMK AO2 SLP217 T01780156 PNO
KRDU 242351Z 36005KT 10SM BKN008 OVC012 18/16 A3017 RMK AO2 SLP213 T01780156 10244 20172 51018 PNO
KRDU 242251Z 02006KT 10SM BKN010 OVC025 18/16 A3015 RMK AO2 DZE21 SLP207 T01780156 PNO
KRDU 242151Z 36008KT 7SM -DZ OVC007 18/16 A3014 RMK AO2 DZB49 SLP202 T01780161 PNO
KRDU 242122Z VRB05KT 10SM BKN009 OVC025 19/16 A3012 RMK AO2 T01890161 PNO
KRDU 242051Z 35007KT 10SM BKN014 OVC025 20/17 A3011 RMK AO2 SLP193 T02000167 53002 PNO
KRDU 242045Z VRB05KT 10SM BKN014 OVC025 20/17 A3011 RMK AO2 PNO
KRDU 241951Z 31003KT 10SM BKN016 BKN025 OVC250 22/17 A3010 RMK AO2 SLP190 T02220172 PNO
KRDU 241851Z VRB06KT 10SM BKN016 BKN022 OVC250 22/17 A3011 RMK AO2 SLP191 T02170172 PNO
KRDU 241751Z 31010G19KT 270V330 10SM BKN022TCU OVC250 24/19 A3009 RMK AO2 SLP185 TCU N-E-S T02440189 10267 20211 53002 PNO
KRDU 241651Z 24008KT 10SM BKN020TCU OVC250 25/21 A3008 RMK AO2 RAB00E27 SLP182 CB DSNT SE-S TCU ALQDS T02500206 PNO
KRDU 241551Z 22011KT 10SM BKN022 OVC250 26/21 A3008 RMK AO2 SLP182 T02560206 PNO
KRDU 241451Z 23009KT 10SM BKN017 BKN250 24/21 A3008 RMK AO2 SLP183 T02440206 51006 PNO
KRDU 241440Z 25008KT 10SM BKN017 BKN250 24/20 A3008 RMK AO2 T02440200 PNO
KRDU 241351Z 21011KT 10SM SCT012 BKN040 BKN250 24/21 A3007 RMK AO2 SLP179 T02440206 PNO
KRDU 241318Z 19010KT 10SM SCT010 SCT026 BKN038 BKN250 22/20 A3007 RMK AO2 T02220200 PNO
KRDU 241251Z 21007KT 10SM FEW006 BKN011 BKN026 BKN250 22/20 A3007 RMK AO2 SLP180 T02170200 PNO
KRDU 241220Z 20006KT 10SM FEW007 BKN013 OVC016 21/19 A3007 RMK AO2 T02110194 PNO
KRDU 241151Z 21005KT 10SM FEW005 BKN015 OVC040 21/20 A3006 RMK AO2 SLP176 60000 70129 T02110200 10211 20200 53008 PNO
KRDU 241051Z 17006KT 8SM FEW005 BKN017 OVC038 21/20 A3005 RMK AO2 SLP173 T02110200 PNO $
KRDU 241009Z 18006KT 8SM SCT006 OVC015 21/21 A3004 RMK AO2 T02110206 PNO $
KRDU 240951Z 18006KT 8SM BKN006 OVC020 21/21 A3004 RMK AO2 SLP167 T02110206 PNO $
KRDU 240851Z 14006KT 7SM FEW004 OVC024 21/21 A3004 RMK AO2 SLP168 60000 T02060206 58002 $